createdAt,value
2022-08-26T00:00:47.600Z,18.70
2022-08-26T00:03:14.477Z,18.60
2022-08-26T00:05:42.198Z,18.60
2022-08-26T00:08:09.115Z,18.60
2022-08-26T00:10:40.590Z,18.60
2022-08-26T00:13:07.498Z,18.60
2022-08-26T00:15:35.470Z,18.50
2022-08-26T00:18:02.201Z,18.50
2022-08-26T00:20:30.907Z,18.50
2022-08-26T00:22:58.385Z,18.50
2022-08-26T00:25:25.303Z,18.50
2022-08-26T00:27:52.077Z,18.40
2022-08-26T00:30:24.484Z,18.40
2022-08-26T00:32:53.405Z,18.40
2022-08-26T00:35:20.392Z,18.40
2022-08-26T00:37:47.094Z,18.30
2022-08-26T00:40:16.962Z,18.30
2022-08-26T00:42:46.000Z,18.20
2022-08-26T00:45:13.119Z,18.20
2022-08-26T00:47:52.090Z,18.20
2022-08-26T00:50:23.475Z,18.20
2022-08-26T00:52:53.929Z,18.20
2022-08-26T00:55:24.585Z,18.20
2022-08-26T00:57:54.214Z,18.20
2022-08-26T01:00:24.455Z,18.20
2022-08-26T01:02:51.361Z,18.20
2022-08-26T01:05:18.671Z,18.20
2022-08-26T01:07:45.857Z,18.20
2022-08-26T01:10:26.337Z,18.30
2022-08-26T01:12:58.431Z,18.30
2022-08-26T01:15:27.746Z,18.30
2022-08-26T01:17:59.644Z,18.30
2022-08-26T01:20:41.606Z,18.30
2022-08-26T01:23:09.689Z,18.40
2022-08-26T01:25:39.448Z,18.40
2022-08-26T01:28:07.751Z,18.40
2022-08-26T01:30:34.571Z,18.40
2022-08-26T01:33:02.622Z,18.30
2022-08-26T01:35:29.586Z,18.30
2022-08-26T01:37:56.789Z,18.30
2022-08-26T01:40:26.457Z,18.30
2022-08-26T01:42:53.803Z,18.30
2022-08-26T01:45:25.374Z,18.20
2022-08-26T01:47:56.880Z,18.20
2022-08-26T01:50:27.711Z,18.20
2022-08-26T01:52:57.259Z,18.10
2022-08-26T01:55:27.629Z,18.10
2022-08-26T01:57:59.412Z,18.10
2022-08-26T02:00:26.743Z,18.00
2022-08-26T02:02:55.366Z,18.00
2022-08-26T02:05:22.097Z,18.00
2022-08-26T02:07:48.808Z,18.00
2022-08-26T02:10:16.124Z,18.00
2022-08-26T02:12:43.338Z,18.00
2022-08-26T02:15:11.379Z,18.00
2022-08-26T02:17:40.933Z,18.00
2022-08-26T02:20:13.371Z,18.00
2022-08-26T02:22:42.135Z,18.00
2022-08-26T02:25:15.266Z,17.90
2022-08-26T02:27:42.053Z,17.90
2022-08-26T02:30:15.293Z,17.80
2022-08-26T02:32:44.104Z,17.80
2022-08-26T02:35:11.516Z,17.80
2022-08-26T02:37:38.552Z,17.70
2022-08-26T02:40:09.592Z,17.70
2022-08-26T02:42:36.429Z,17.60
2022-08-26T02:45:05.259Z,17.60
2022-08-26T02:47:33.994Z,17.60
2022-08-26T02:50:01.513Z,17.50
2022-08-26T02:52:28.330Z,17.50
2022-08-26T02:54:55.125Z,17.50
2022-08-26T02:57:22.214Z,17.40
2022-08-26T02:59:49.009Z,17.40
2022-08-26T03:02:16.499Z,17.40
2022-08-26T03:04:57.918Z,17.30
2022-08-26T03:07:29.162Z,17.30
2022-08-26T03:09:56.704Z,17.30
2022-08-26T03:12:24.096Z,17.30
2022-08-26T03:14:52.742Z,17.30
2022-08-26T03:17:19.467Z,17.20
2022-08-26T03:19:46.233Z,17.20
2022-08-26T03:22:14.494Z,17.20
2022-08-26T03:24:41.490Z,17.20
2022-08-26T03:27:12.840Z,17.10
2022-08-26T03:29:41.273Z,17.10
2022-08-26T03:32:08.847Z,17.10
2022-08-26T03:34:36.007Z,17.10
2022-08-26T03:37:02.734Z,17.10
2022-08-26T03:39:31.727Z,17.00
2022-08-26T03:41:59.583Z,17.00
2022-08-26T03:44:26.411Z,17.00
2022-08-26T03:46:53.298Z,16.90
2022-08-26T03:49:20.101Z,16.90
2022-08-26T03:51:46.801Z,16.80
2022-08-26T03:54:13.514Z,16.80
2022-08-26T03:56:40.333Z,16.70
2022-08-26T03:59:07.480Z,16.70
2022-08-26T04:01:34.715Z,16.70
2022-08-26T04:04:01.594Z,16.70
2022-08-26T04:06:31.965Z,16.70
2022-08-26T04:09:00.136Z,16.70
2022-08-26T04:11:28.674Z,16.60
2022-08-26T04:14:00.149Z,16.60
2022-08-26T04:16:27.551Z,16.60
2022-08-26T04:18:55.141Z,16.50
2022-08-26T04:21:22.839Z,16.60
2022-08-26T04:23:49.868Z,16.50
2022-08-26T04:26:17.761Z,16.50
2022-08-26T04:28:44.541Z,16.40
2022-08-26T04:31:15.203Z,16.40
2022-08-26T04:33:42.942Z,16.40
2022-08-26T04:36:10.105Z,16.40
2022-08-26T04:38:36.865Z,16.30
2022-08-26T04:41:05.414Z,16.30
2022-08-26T04:43:32.398Z,16.20
2022-08-26T04:46:00.638Z,16.20
2022-08-26T04:48:31.441Z,16.20
2022-08-26T04:50:58.419Z,16.20
2022-08-26T04:53:25.777Z,16.10
2022-08-26T04:55:55.218Z,16.10
2022-08-26T04:58:22.631Z,16.00
2022-08-26T05:00:51.032Z,16.00
2022-08-26T05:03:18.188Z,16.00
2022-08-26T05:05:45.984Z,16.00
2022-08-26T05:08:13.709Z,15.90
2022-08-26T05:10:45.127Z,15.90
2022-08-26T05:13:16.586Z,15.80
2022-08-26T05:15:43.565Z,15.80
2022-08-26T05:18:10.543Z,15.80
2022-08-26T05:20:43.638Z,15.70
2022-08-26T05:23:11.990Z,15.70
2022-08-26T05:25:39.809Z,15.70
2022-08-26T05:28:06.528Z,15.60
2022-08-26T05:30:33.253Z,15.60
2022-08-26T05:33:01.136Z,15.60
2022-08-26T05:35:29.995Z,15.50
2022-08-26T05:37:59.073Z,15.50
2022-08-26T05:40:25.859Z,15.40
2022-08-26T05:42:52.873Z,15.40
2022-08-26T05:45:20.175Z,15.40
2022-08-26T05:47:47.003Z,15.40
2022-08-26T05:50:14.262Z,15.40
2022-08-26T05:52:41.153Z,15.40
2022-08-26T05:55:08.309Z,15.40
2022-08-26T05:57:39.959Z,15.40
2022-08-26T06:00:09.954Z,15.40
2022-08-26T06:02:36.746Z,15.40
2022-08-26T06:05:03.732Z,15.50
2022-08-26T06:07:34.537Z,15.50
2022-08-26T06:10:28.335Z,15.70
2022-08-26T06:12:47.953Z,15.70
2022-08-26T06:15:15.063Z,15.80
2022-08-26T06:17:42.541Z,15.70
2022-08-26T06:20:09.909Z,15.80
2022-08-26T06:22:36.694Z,15.80
2022-08-26T06:25:03.535Z,15.90
2022-08-26T06:27:32.936Z,15.90
2022-08-26T06:29:59.738Z,16.00
2022-08-26T06:32:26.934Z,15.90
2022-08-26T06:34:53.638Z,16.00
2022-08-26T06:37:20.414Z,16.10
2022-08-26T06:39:47.796Z,16.10
2022-08-26T06:42:18.055Z,16.20
2022-08-26T06:44:45.082Z,16.10
2022-08-26T06:47:11.949Z,16.20
2022-08-26T06:49:38.735Z,16.20
2022-08-26T06:52:06.548Z,16.20
2022-08-26T06:54:33.404Z,16.20
2022-08-26T06:57:00.362Z,16.20
2022-08-26T06:59:27.178Z,16.30
2022-08-26T07:01:54.171Z,16.30
2022-08-26T07:04:22.480Z,16.40
2022-08-26T07:06:50.303Z,16.40
2022-08-26T07:09:23.592Z,16.40
2022-08-26T07:11:50.565Z,16.40
2022-08-26T07:14:17.608Z,16.50
2022-08-26T07:16:48.810Z,16.60
2022-08-26T07:19:15.732Z,16.60
2022-08-26T07:21:43.745Z,16.70
2022-08-26T07:24:11.207Z,16.80
2022-08-26T07:26:38.263Z,16.90
2022-08-26T07:29:05.016Z,17.00
2022-08-26T07:31:39.367Z,17.10
2022-08-26T07:34:09.355Z,17.20
2022-08-26T07:36:36.490Z,17.30
2022-08-26T07:39:03.457Z,17.40
2022-08-26T07:44:02.359Z,17.70
2022-08-26T07:46:31.095Z,17.80
2022-08-26T07:48:58.066Z,17.90
2022-08-26T07:51:27.912Z,18.10
2022-08-26T07:53:54.795Z,18.20
2022-08-26T07:56:22.102Z,18.30
2022-08-26T07:58:51.409Z,18.40
2022-08-26T08:01:19.758Z,18.50
2022-08-26T08:03:50.429Z,18.60
2022-08-26T08:06:21.343Z,18.70
2022-08-26T08:08:50.905Z,18.80
2022-08-26T08:11:20.275Z,18.80
2022-08-26T08:13:55.996Z,18.90
2022-08-26T08:16:26.706Z,19.00
2022-08-26T08:18:55.309Z,19.10
2022-08-26T08:21:30.004Z,19.20
2022-08-26T08:23:57.136Z,19.30
2022-08-26T08:26:24.824Z,19.40
2022-08-26T08:28:54.141Z,19.50
2022-08-26T08:31:56.499Z,19.50
2022-08-26T08:34:37.089Z,19.60
2022-08-26T08:37:07.352Z,19.60
2022-08-26T08:39:42.165Z,19.70
2022-08-26T08:42:10.588Z,19.70
2022-08-26T08:44:38.488Z,19.90
2022-08-26T08:47:10.165Z,20.00
2022-08-26T08:49:37.068Z,20.10
2022-08-26T08:52:08.979Z,20.20
2022-08-26T08:54:38.266Z,20.30
2022-08-26T08:57:05.146Z,20.40
2022-08-26T08:59:34.143Z,20.50
2022-08-26T09:02:39.799Z,20.60
2022-08-26T09:05:23.890Z,20.60
2022-08-26T09:08:32.502Z,20.80
2022-08-26T09:11:01.636Z,21.00
2022-08-26T09:13:32.079Z,21.00
2022-08-26T09:16:14.005Z,21.10
2022-08-26T09:19:12.493Z,21.20
2022-08-26T09:21:39.249Z,21.30
2022-08-26T09:24:06.223Z,21.40
2022-08-26T09:26:39.298Z,21.50
2022-08-26T09:29:27.394Z,21.60
2022-08-26T09:32:14.490Z,21.70
2022-08-26T09:34:55.449Z,21.90
2022-08-26T09:37:41.839Z,22.00
2022-08-26T09:40:22.780Z,22.10
2022-08-26T09:43:22.816Z,22.20
2022-08-26T09:45:58.444Z,22.20
2022-08-26T09:48:36.189Z,22.30
2022-08-26T09:51:05.275Z,22.30
2022-08-26T09:53:37.083Z,22.40
2022-08-26T09:56:27.613Z,22.50
2022-08-26T09:58:54.718Z,22.60
2022-08-26T10:01:35.185Z,22.70
2022-08-26T10:04:14.440Z,22.90
2022-08-26T10:06:57.717Z,23.10
2022-08-26T10:09:24.783Z,23.30
2022-08-26T10:11:56.882Z,23.40
2022-08-26T10:14:32.875Z,23.50
2022-08-26T10:17:46.620Z,23.70
2022-08-26T10:20:23.533Z,23.90
2022-08-26T10:23:01.447Z,24.00
2022-08-26T10:25:33.818Z,24.20
2022-08-26T10:28:08.891Z,24.40
2022-08-26T10:30:57.048Z,24.70
2022-08-26T10:33:23.828Z,25.10
2022-08-26T10:35:55.875Z,25.60
2022-08-26T10:38:45.342Z,26.10
2022-08-26T10:41:18.045Z,26.60
2022-08-26T10:43:59.232Z,27.10
2022-08-26T10:46:30.081Z,27.80
2022-08-26T10:49:08.904Z,28.40
2022-08-26T10:51:38.731Z,29.10
2022-08-26T10:54:10.809Z,29.60
2022-08-26T10:57:17.826Z,29.80
2022-08-26T11:00:04.437Z,30.10
2022-08-26T11:02:47.425Z,30.60
2022-08-26T11:05:19.007Z,31.20
2022-08-26T11:07:47.242Z,31.60
2022-08-26T11:10:22.085Z,32.00
2022-08-26T11:13:02.351Z,32.40
2022-08-26T11:15:29.519Z,32.00
2022-08-26T11:18:23.041Z,31.70
2022-08-26T11:20:51.911Z,31.00
2022-08-26T11:23:21.789Z,30.20
2022-08-26T11:26:10.168Z,29.60
2022-08-26T11:28:44.523Z,29.90
2022-08-26T11:31:40.378Z,29.90
2022-08-26T11:34:10.799Z,29.60
2022-08-26T11:36:51.994Z,29.80
2022-08-26T11:39:25.749Z,30.50
2022-08-26T11:41:53.973Z,31.50
2022-08-26T11:44:25.540Z,32.40
2022-08-26T11:46:57.381Z,33.20
2022-08-26T11:49:24.115Z,33.90
2022-08-26T11:51:51.416Z,34.20
2022-08-26T11:54:30.530Z,34.50
2022-08-26T11:57:07.803Z,35.10
2022-08-26T11:59:37.911Z,35.60
2022-08-26T12:02:04.825Z,35.30
2022-08-26T12:04:33.146Z,35.00
2022-08-26T12:07:00.628Z,34.40
2022-08-26T12:09:30.111Z,33.60
2022-08-26T12:12:23.957Z,33.00
2022-08-26T12:15:16.044Z,32.00
2022-08-26T12:17:43.453Z,31.20
2022-08-26T12:20:36.170Z,30.50
2022-08-26T12:23:03.006Z,30.30
2022-08-26T12:25:35.914Z,30.10
2022-08-26T12:28:04.118Z,29.70
2022-08-26T12:30:31.093Z,29.40
2022-08-26T12:33:22.074Z,29.00
2022-08-26T12:35:56.552Z,29.70
2022-08-26T12:38:24.933Z,31.10
2022-08-26T12:40:51.824Z,32.40
2022-08-26T12:44:03.777Z,33.60
2022-08-26T12:46:30.592Z,35.10
2022-08-26T12:48:57.456Z,36.10
2022-08-26T12:51:26.348Z,36.90
2022-08-26T12:53:53.446Z,37.60
2022-08-26T12:56:21.653Z,38.20
2022-08-26T12:59:01.438Z,38.80
2022-08-26T13:01:29.729Z,39.20
2022-08-26T13:03:56.567Z,39.30
2022-08-26T13:06:23.448Z,39.70
2022-08-26T13:08:50.236Z,40.00
2022-08-26T13:11:22.622Z,40.40
2022-08-26T13:14:06.898Z,40.50
2022-08-26T13:16:34.747Z,40.40
2022-08-26T13:19:04.211Z,40.60
2022-08-26T13:21:37.269Z,41.10
2022-08-26T13:24:09.844Z,41.20
2022-08-26T13:26:36.795Z,41.00
2022-08-26T13:29:07.204Z,41.10
2022-08-26T13:31:37.948Z,41.00
2022-08-26T13:34:05.123Z,40.50
2022-08-26T13:36:32.179Z,40.20
2022-08-26T13:38:59.173Z,40.40
2022-08-26T13:41:29.469Z,40.70
2022-08-26T13:43:58.189Z,40.50
2022-08-26T13:46:27.197Z,40.50
2022-08-26T13:48:54.184Z,40.60
2022-08-26T13:51:21.792Z,40.90
2022-08-26T13:53:51.340Z,41.20
2022-08-26T13:56:18.561Z,41.40
2022-08-26T13:58:46.149Z,41.30
2022-08-26T14:01:13.445Z,41.10
2022-08-26T14:03:40.448Z,41.20
2022-08-26T14:06:07.443Z,41.40
2022-08-26T14:08:34.271Z,41.70
2022-08-26T14:11:04.441Z,42.20
2022-08-26T14:13:31.288Z,42.50
2022-08-26T14:15:58.459Z,42.80
2022-08-26T14:18:29.755Z,43.00
2022-08-26T14:20:57.208Z,42.60
2022-08-26T14:23:24.360Z,42.30
2022-08-26T14:25:52.386Z,42.10
2022-08-26T14:28:19.356Z,42.00
2022-08-26T14:30:50.712Z,42.00
2022-08-26T14:33:17.506Z,41.90
2022-08-26T14:35:49.055Z,41.70
2022-08-26T14:38:16.817Z,41.70
2022-08-26T14:40:43.763Z,41.20
2022-08-26T14:43:11.694Z,39.80
2022-08-26T14:48:09.800Z,36.80
2022-08-26T14:50:36.942Z,35.40
2022-08-26T14:53:03.981Z,34.30
2022-08-26T14:55:32.807Z,33.30
2022-08-26T14:57:59.715Z,32.40
2022-08-26T15:00:26.926Z,32.40
2022-08-26T15:02:53.962Z,33.50
2022-08-26T15:05:20.990Z,34.60
2022-08-26T15:07:47.974Z,35.30
2022-08-26T15:10:15.104Z,36.00
2022-08-26T15:12:42.139Z,36.60
2022-08-26T15:15:10.339Z,37.30
2022-08-26T15:17:37.698Z,37.90
2022-08-26T15:20:05.270Z,38.10
2022-08-26T15:22:32.145Z,38.20
2022-08-26T15:24:59.010Z,38.10
2022-08-26T15:27:25.978Z,37.80
2022-08-26T15:29:53.003Z,37.20
2022-08-26T15:32:21.353Z,36.40
2022-08-26T15:34:48.377Z,35.60
2022-08-26T15:37:15.461Z,34.80
2022-08-26T15:39:42.383Z,34.20
2022-08-26T15:42:09.433Z,33.70
2022-08-26T15:44:36.232Z,33.50
2022-08-26T15:47:03.146Z,33.40
2022-08-26T15:49:30.099Z,33.20
2022-08-26T15:51:56.970Z,33.00
2022-08-26T15:54:23.837Z,32.80
2022-08-26T15:56:51.053Z,32.50
2022-08-26T15:59:18.712Z,32.10
2022-08-26T16:01:45.696Z,31.60
2022-08-26T16:04:12.858Z,31.10
2022-08-26T16:06:40.218Z,30.60
2022-08-26T16:09:07.175Z,30.10
2022-08-26T16:11:34.658Z,29.80
2022-08-26T16:14:01.825Z,29.60
2022-08-26T16:16:28.818Z,29.40
2022-08-26T16:18:55.973Z,29.20
2022-08-26T16:21:24.593Z,29.00
2022-08-26T16:23:51.593Z,28.80
2022-08-26T16:26:20.231Z,28.60
2022-08-26T16:28:47.064Z,28.40
2022-08-26T16:31:14.111Z,28.30
2022-08-26T16:33:41.133Z,28.20
2022-08-26T16:36:08.648Z,28.10
2022-08-26T16:38:35.635Z,28.00
2022-08-26T16:41:02.515Z,27.90
2022-08-26T16:43:29.640Z,27.80
2022-08-26T16:45:56.700Z,27.70
2022-08-26T16:48:23.809Z,27.60
2022-08-26T16:50:51.755Z,27.50
2022-08-26T16:53:19.063Z,27.40
2022-08-26T16:55:47.110Z,27.40
2022-08-26T16:58:14.015Z,27.30
2022-08-26T17:00:40.862Z,27.30
2022-08-26T17:03:07.756Z,27.20
2022-08-26T17:05:35.005Z,27.10
2022-08-26T17:08:01.928Z,27.00
2022-08-26T17:10:29.089Z,26.90
2022-08-26T17:12:55.938Z,26.90
2022-08-26T17:15:23.139Z,26.90
2022-08-26T17:17:51.562Z,26.80
2022-08-26T17:20:18.554Z,26.80
2022-08-26T17:22:46.949Z,26.70
2022-08-26T17:25:16.139Z,26.70
2022-08-26T17:27:43.318Z,26.50
2022-08-26T17:30:10.865Z,26.50
2022-08-26T17:32:37.752Z,26.40
2022-08-26T17:35:04.917Z,26.40
2022-08-26T17:37:31.957Z,26.30
2022-08-26T17:39:58.759Z,26.30
2022-08-26T17:42:31.498Z,26.30
2022-08-26T17:44:59.052Z,26.20
2022-08-26T17:47:26.012Z,26.20
2022-08-26T17:49:52.829Z,26.10
2022-08-26T17:52:19.770Z,26.10
2022-08-26T17:54:46.832Z,26.00
2022-08-26T17:57:13.778Z,26.00
2022-08-26T17:59:43.902Z,25.90
2022-08-26T18:02:13.083Z,25.90
2022-08-26T18:04:39.871Z,25.80
2022-08-26T18:07:06.676Z,25.80
2022-08-26T18:09:33.761Z,25.60
2022-08-26T18:12:00.566Z,25.60
2022-08-26T18:14:27.507Z,25.50
2022-08-26T18:16:54.574Z,25.40
2022-08-26T18:19:21.569Z,25.30
2022-08-26T18:21:48.415Z,25.30
2022-08-26T18:24:15.295Z,25.20
2022-08-26T18:26:42.452Z,25.10
2022-08-26T18:29:09.435Z,25.10
2022-08-26T18:31:36.296Z,25.10
2022-08-26T18:34:03.347Z,25.10
2022-08-26T18:36:32.843Z,25.10
2022-08-26T18:38:59.715Z,25.00
2022-08-26T18:41:29.789Z,25.00
2022-08-26T18:43:56.702Z,25.00
2022-08-26T18:46:24.185Z,25.00
2022-08-26T18:48:52.203Z,24.90
2022-08-26T18:51:24.019Z,25.00
2022-08-26T18:53:51.077Z,24.90
2022-08-26T18:56:18.781Z,24.90
2022-08-26T18:58:45.906Z,24.90
2022-08-26T19:01:12.805Z,24.90
2022-08-26T19:03:39.806Z,24.80
2022-08-26T19:06:06.741Z,24.80
2022-08-26T19:08:33.486Z,24.80
2022-08-26T19:11:00.502Z,24.80
2022-08-26T19:13:27.377Z,24.70
2022-08-26T19:15:54.153Z,24.70
2022-08-26T19:18:21.202Z,24.60
2022-08-26T19:20:48.241Z,24.50
2022-08-26T19:23:31.021Z,24.50
2022-08-26T19:25:58.648Z,24.40
2022-08-26T19:28:25.574Z,24.40
2022-08-26T19:30:53.396Z,24.40
2022-08-26T19:33:24.994Z,24.30
2022-08-26T19:35:51.754Z,24.30
2022-08-26T19:38:27.842Z,24.20
2022-08-26T19:40:54.668Z,24.10
2022-08-26T19:43:21.403Z,24.10
2022-08-26T19:45:49.530Z,24.00
2022-08-26T19:48:16.578Z,23.90
2022-08-26T19:50:46.695Z,23.90
2022-08-26T19:53:19.652Z,23.80
2022-08-26T19:55:46.783Z,23.70
2022-08-26T19:58:13.536Z,23.60
2022-08-26T20:00:40.378Z,23.50
2022-08-26T20:03:07.159Z,23.50
2022-08-26T20:05:37.374Z,23.40
2022-08-26T20:08:06.512Z,23.40
2022-08-26T20:10:33.352Z,23.30
2022-08-26T20:13:00.169Z,23.30
2022-08-26T20:15:31.596Z,23.20
2022-08-26T20:17:58.340Z,23.20
2022-08-26T20:20:33.201Z,23.20
2022-08-26T20:23:01.449Z,23.10
2022-08-26T20:25:28.421Z,23.10
2022-08-26T20:27:55.270Z,23.00
2022-08-26T20:30:24.982Z,22.90
2022-08-26T20:32:51.820Z,22.80
2022-08-26T20:35:18.713Z,22.70
2022-08-26T20:37:45.462Z,22.70
2022-08-26T20:40:13.157Z,22.50
2022-08-26T20:42:40.308Z,22.40
2022-08-26T20:45:07.648Z,22.40
2022-08-26T20:47:37.692Z,22.30
2022-08-26T20:50:05.068Z,22.20
2022-08-26T20:52:31.872Z,22.20
2022-08-26T20:54:58.661Z,22.10
2022-08-26T20:57:25.522Z,22.00
2022-08-26T20:59:52.419Z,21.90
2022-08-26T21:02:19.332Z,21.90
2022-08-26T21:04:46.127Z,21.80
2022-08-26T21:07:13.045Z,21.80
2022-08-26T21:09:39.816Z,21.70
2022-08-26T21:12:06.767Z,21.70
2022-08-26T21:14:33.559Z,21.60
2022-08-26T21:17:00.360Z,21.60
2022-08-26T21:19:27.197Z,21.60
2022-08-26T21:21:54.015Z,21.50
2022-08-26T21:24:21.021Z,21.50
2022-08-26T21:26:47.843Z,21.50
2022-08-26T21:29:14.665Z,21.50
2022-08-26T21:31:46.185Z,21.40
2022-08-26T21:34:15.204Z,21.30
2022-08-26T21:36:42.005Z,21.30
2022-08-26T21:39:11.691Z,21.20
2022-08-26T21:41:39.065Z,21.10
2022-08-26T21:44:05.933Z,21.10
2022-08-26T21:46:32.759Z,21.10
2022-08-26T21:49:01.363Z,21.10
2022-08-26T21:51:30.448Z,21.10
2022-08-26T21:53:57.830Z,21.10
2022-08-26T21:56:25.813Z,21.00
2022-08-26T21:58:53.470Z,21.00
2022-08-26T22:01:23.087Z,21.00
2022-08-26T22:03:50.393Z,21.00
2022-08-26T22:06:17.829Z,20.90
2022-08-26T22:08:44.832Z,20.90
2022-08-26T22:11:11.776Z,20.90
2022-08-26T22:13:39.343Z,20.80
2022-08-26T22:16:06.517Z,20.80
2022-08-26T22:18:33.680Z,20.70
2022-08-26T22:21:02.350Z,20.70
2022-08-26T22:23:29.447Z,20.60
2022-08-26T22:25:56.396Z,20.60
2022-08-26T22:28:23.280Z,20.50
2022-08-26T22:30:50.097Z,20.40
2022-08-26T22:33:17.096Z,20.40
2022-08-26T22:35:47.198Z,20.30
2022-08-26T22:38:14.202Z,20.30
2022-08-26T22:40:45.510Z,20.20
2022-08-26T22:43:12.400Z,20.20
2022-08-26T22:45:46.384Z,20.10
2022-08-26T22:48:14.637Z,20.10
2022-08-26T22:50:45.472Z,20.10
2022-08-26T22:53:12.810Z,20.10
2022-08-26T22:55:39.707Z,20.10
2022-08-26T22:58:06.750Z,20.00
2022-08-26T23:00:33.872Z,19.90
2022-08-26T23:03:01.743Z,19.90
2022-08-26T23:05:28.604Z,19.90
2022-08-26T23:07:55.417Z,19.90
2022-08-26T23:10:22.399Z,19.80
2022-08-26T23:12:49.156Z,19.80
2022-08-26T23:15:15.972Z,19.70
2022-08-26T23:17:45.100Z,19.60
2022-08-26T23:20:12.314Z,19.60
2022-08-26T23:22:39.318Z,19.50
2022-08-26T23:25:07.778Z,19.40
2022-08-26T23:27:39.117Z,19.40
2022-08-26T23:30:07.546Z,19.40
2022-08-26T23:32:34.595Z,19.40
2022-08-26T23:35:01.392Z,19.30
2022-08-26T23:37:33.236Z,19.30
2022-08-26T23:40:08.558Z,19.30
2022-08-26T23:42:35.427Z,19.30
2022-08-26T23:45:06.460Z,19.20
2022-08-26T23:47:33.481Z,19.20
2022-08-26T23:50:00.279Z,19.20
2022-08-26T23:52:27.275Z,19.20
2022-08-26T23:54:54.157Z,19.20
2022-08-26T23:57:22.339Z,19.10
2022-08-26T23:59:49.160Z,19.10
